createdAt,value
2018-09-20T00:00:20.972Z,20.00
2018-09-20T00:02:57.395Z,20.00
2018-09-20T00:05:33.915Z,19.90
2018-09-20T00:08:10.513Z,19.80
2018-09-20T00:10:46.985Z,19.70
2018-09-20T00:13:23.479Z,19.60
2018-09-20T00:15:59.825Z,19.70
2018-09-20T00:18:36.306Z,19.60
2018-09-20T00:21:12.928Z,19.60
2018-09-20T00:23:49.440Z,19.50
2018-09-20T00:26:25.785Z,19.50
2018-09-20T00:29:02.272Z,19.50
2018-09-20T00:31:38.514Z,19.40
2018-09-20T00:34:14.929Z,19.30
2018-09-20T00:36:51.371Z,19.30
2018-09-20T00:39:27.903Z,19.30
2018-09-20T00:42:04.367Z,19.20
2018-09-20T00:44:40.784Z,19.20
2018-09-20T00:47:17.298Z,19.10
2018-09-20T00:49:53.762Z,19.10
2018-09-20T00:52:30.081Z,19.10
2018-09-20T00:55:06.634Z,19.10
2018-09-20T00:57:43.212Z,19.00
2018-09-20T01:00:19.596Z,19.00
2018-09-20T01:02:56.218Z,18.90
2018-09-20T01:05:32.563Z,18.90
2018-09-20T01:08:09.081Z,18.90
2018-09-20T01:10:45.581Z,18.90
2018-09-20T01:13:22.083Z,18.90
2018-09-20T01:15:59.362Z,18.90
2018-09-20T01:18:35.824Z,18.80
2018-09-20T01:21:12.328Z,18.80
2018-09-20T01:23:48.741Z,18.80
2018-09-20T01:26:25.358Z,18.70
2018-09-20T01:29:01.892Z,18.60
2018-09-20T01:31:38.360Z,18.60
2018-09-20T01:34:14.841Z,18.50
2018-09-20T01:36:51.232Z,18.50
2018-09-20T01:39:27.712Z,18.50
2018-09-20T01:42:04.143Z,18.40
2018-09-20T01:44:40.598Z,18.30
2018-09-20T01:47:17.080Z,18.40
2018-09-20T01:49:53.588Z,18.30
2018-09-20T01:52:29.963Z,18.30
2018-09-20T01:55:06.567Z,18.20
2018-09-20T01:57:43.055Z,18.10
2018-09-20T02:00:20.147Z,18.00
2018-09-20T02:02:56.881Z,18.00
2018-09-20T02:05:33.247Z,18.00
2018-09-20T02:08:09.617Z,18.00
2018-09-20T02:10:46.012Z,18.00
2018-09-20T02:13:22.460Z,18.00
2018-09-20T02:15:58.904Z,18.00
2018-09-20T02:18:35.385Z,18.00
2018-09-20T02:21:11.863Z,17.90
2018-09-20T02:23:48.312Z,17.90
2018-09-20T02:26:24.811Z,17.80
2018-09-20T02:29:01.188Z,17.80
2018-09-20T02:31:37.654Z,17.80
2018-09-20T02:34:14.081Z,17.70
2018-09-20T02:36:50.997Z,17.70
2018-09-20T02:39:27.373Z,17.70
2018-09-20T02:42:04.467Z,17.70
2018-09-20T02:44:40.743Z,17.70
2018-09-20T02:47:17.286Z,17.70
2018-09-20T02:49:53.744Z,17.70
2018-09-20T02:52:30.298Z,17.70
2018-09-20T02:55:06.789Z,17.70
2018-09-20T02:57:43.194Z,17.60
2018-09-20T03:00:19.691Z,17.60
2018-09-20T03:02:56.073Z,17.60
2018-09-20T03:05:32.573Z,17.50
2018-09-20T03:08:09.188Z,17.60
2018-09-20T03:10:45.579Z,17.60
2018-09-20T03:13:22.333Z,17.60
2018-09-20T03:15:58.820Z,17.60
2018-09-20T03:18:35.275Z,17.60
2018-09-20T03:21:11.796Z,17.60
2018-09-20T03:23:48.068Z,17.60
2018-09-20T03:26:24.774Z,17.50
2018-09-20T03:29:01.300Z,17.50
2018-09-20T03:31:37.575Z,17.40
2018-09-20T03:34:14.085Z,17.40
2018-09-20T03:36:50.583Z,17.30
2018-09-20T03:39:27.034Z,17.30
2018-09-20T03:42:03.505Z,17.30
2018-09-20T03:44:39.903Z,17.30
2018-09-20T03:47:16.444Z,17.20
2018-09-20T03:49:52.847Z,17.20
2018-09-20T03:52:29.309Z,17.10
2018-09-20T03:55:06.378Z,17.10
2018-09-20T03:57:42.745Z,17.00
2018-09-20T04:00:19.238Z,17.00
2018-09-20T04:02:55.569Z,17.10
2018-09-20T04:05:32.097Z,17.00
2018-09-20T04:08:08.584Z,17.00
2018-09-20T04:10:45.020Z,16.90
2018-09-20T04:13:21.506Z,16.90
2018-09-20T04:15:57.828Z,16.90
2018-09-20T04:18:34.375Z,16.90
2018-09-20T04:21:10.651Z,16.90
2018-09-20T04:23:47.153Z,16.90
2018-09-20T04:26:23.684Z,16.90
2018-09-20T04:29:00.241Z,16.90
2018-09-20T04:31:36.643Z,17.00
2018-09-20T04:34:13.151Z,17.00
2018-09-20T04:36:49.509Z,17.10
2018-09-20T04:39:26.075Z,17.10
2018-09-20T04:42:02.593Z,17.10
2018-09-20T04:44:38.975Z,17.10
2018-09-20T04:47:15.353Z,17.00
2018-09-20T04:49:51.871Z,17.00
2018-09-20T04:52:28.265Z,17.00
2018-09-20T04:55:04.785Z,17.00
2018-09-20T04:57:41.263Z,17.00
2018-09-20T05:00:17.579Z,17.00
2018-09-20T05:02:54.135Z,17.00
2018-09-20T05:05:30.624Z,17.00
2018-09-20T05:08:07.149Z,16.90
2018-09-20T05:10:43.703Z,16.90
2018-09-20T05:13:20.140Z,16.90
2018-09-20T05:15:56.754Z,16.90
2018-09-20T05:18:33.184Z,16.80
2018-09-20T05:21:09.619Z,16.70
2018-09-20T05:23:46.020Z,16.70
2018-09-20T05:26:22.460Z,16.80
2018-09-20T05:28:58.991Z,16.80
2018-09-20T05:31:35.269Z,16.70
2018-09-20T05:34:11.602Z,16.80
2018-09-20T05:36:48.141Z,16.80
2018-09-20T05:39:24.638Z,16.80
2018-09-20T05:42:01.041Z,16.80
2018-09-20T05:44:37.545Z,16.80
2018-09-20T05:47:13.990Z,16.80
2018-09-20T05:49:50.499Z,16.80
2018-09-20T05:52:26.995Z,16.80
2018-09-20T05:55:03.417Z,16.80
2018-09-20T05:57:39.708Z,16.90
2018-09-20T06:00:16.331Z,16.90
2018-09-20T06:02:52.712Z,16.90
2018-09-20T06:05:29.063Z,17.00
2018-09-20T06:08:05.547Z,17.10
2018-09-20T06:10:41.831Z,17.10
2018-09-20T06:13:18.419Z,17.10
2018-09-20T06:15:54.672Z,17.10
2018-09-20T06:18:31.149Z,17.20
2018-09-20T06:21:07.588Z,17.20
2018-09-20T06:23:44.060Z,17.20
2018-09-20T06:26:20.485Z,17.30
2018-09-20T06:28:57.715Z,17.40
2018-09-20T06:31:34.084Z,17.40
2018-09-20T06:34:10.592Z,17.50
2018-09-20T06:36:47.145Z,17.60
2018-09-20T06:39:23.590Z,17.70
2018-09-20T06:41:59.983Z,17.90
2018-09-20T06:44:36.445Z,18.00
2018-09-20T06:47:12.976Z,18.20
2018-09-20T06:49:49.434Z,18.30
2018-09-20T06:52:25.853Z,18.40
2018-09-20T06:55:02.160Z,18.50
2018-09-20T06:57:38.608Z,18.60
2018-09-20T07:00:15.186Z,19.00
2018-09-20T07:02:51.703Z,19.40
2018-09-20T07:05:28.135Z,20.00
2018-09-20T07:08:04.744Z,20.70
2018-09-20T07:10:41.092Z,21.30
2018-09-20T07:13:17.714Z,21.60
2018-09-20T07:15:54.216Z,22.00
2018-09-20T07:18:30.851Z,22.60
2018-09-20T07:21:07.565Z,23.20
2018-09-20T07:23:44.267Z,23.60
2018-09-20T07:26:20.926Z,24.10
2018-09-20T07:28:57.522Z,24.20
2018-09-20T07:31:33.997Z,24.60
2018-09-20T07:34:10.427Z,24.90
2018-09-20T07:36:46.931Z,25.00
2018-09-20T07:39:23.500Z,25.30
2018-09-20T07:41:59.919Z,25.40
2018-09-20T07:44:36.302Z,25.50
2018-09-20T07:47:12.790Z,25.80
2018-09-20T07:49:49.236Z,25.90
2018-09-20T07:52:26.062Z,26.10
2018-09-20T07:55:02.551Z,25.90
2018-09-20T07:57:38.920Z,26.00
2018-09-20T08:00:15.362Z,25.70
2018-09-20T08:02:51.809Z,25.90
2018-09-20T08:05:28.225Z,25.90
2018-09-20T08:08:04.638Z,26.10
2018-09-20T08:10:41.278Z,26.20
2018-09-20T08:13:17.562Z,26.30
2018-09-20T08:15:53.892Z,26.30
2018-09-20T08:18:30.345Z,26.60
2018-09-20T08:21:07.039Z,26.90
2018-09-20T08:23:44.027Z,27.00
2018-09-20T08:26:20.502Z,27.30
2018-09-20T08:28:56.830Z,27.30
2018-09-20T08:31:33.317Z,27.30
2018-09-20T08:34:09.967Z,27.30
2018-09-20T08:36:46.257Z,27.40
2018-09-20T08:39:22.732Z,27.50
2018-09-20T08:41:59.171Z,27.90
2018-09-20T08:44:35.700Z,28.00
2018-09-20T08:47:12.199Z,28.10
2018-09-20T08:49:48.803Z,28.10
2018-09-20T08:52:25.508Z,28.30
2018-09-20T08:55:01.947Z,28.10
2018-09-20T08:57:43.506Z,28.40
2018-09-20T09:00:20.178Z,28.80
2018-09-20T09:02:56.499Z,28.50
2018-09-20T09:05:32.952Z,28.40
2018-09-20T09:08:09.363Z,28.50
2018-09-20T09:10:45.905Z,28.60
2018-09-20T09:13:22.422Z,28.40
2018-09-20T09:15:58.908Z,28.40
2018-09-20T09:18:35.311Z,28.40
2018-09-20T09:21:11.781Z,28.40
2018-09-20T09:23:48.196Z,28.80
2018-09-20T09:26:24.701Z,28.60
2018-09-20T09:29:01.062Z,29.00
2018-09-20T09:31:37.479Z,29.30
2018-09-20T09:34:14.277Z,29.50
2018-09-20T09:36:50.656Z,29.70
2018-09-20T09:39:27.098Z,30.00
2018-09-20T09:42:03.572Z,30.30
2018-09-20T09:44:40.587Z,30.40
2018-09-20T09:47:17.097Z,30.10
2018-09-20T09:49:53.370Z,29.40
2018-09-20T09:52:29.944Z,29.00
2018-09-20T09:55:06.317Z,28.80
2018-09-20T09:57:42.808Z,28.60
2018-09-20T10:00:23.391Z,28.50
2018-09-20T10:02:59.890Z,28.60
2018-09-20T10:05:36.322Z,28.70
2018-09-20T10:08:12.778Z,28.60
2018-09-20T10:10:50.314Z,28.50
2018-09-20T10:13:26.778Z,28.20
2018-09-20T10:16:03.173Z,28.40
2018-09-20T10:18:39.593Z,28.50
2018-09-20T10:21:16.115Z,28.70
2018-09-20T10:23:52.668Z,28.80
2018-09-20T10:26:29.022Z,29.00
2018-09-20T10:29:05.539Z,28.80
2018-09-20T10:31:41.907Z,29.00
2018-09-20T10:34:18.225Z,29.00
2018-09-20T10:36:54.815Z,28.80
2018-09-20T10:39:31.205Z,28.40
2018-09-20T10:42:07.583Z,28.30
2018-09-20T10:44:44.046Z,28.10
2018-09-20T10:47:20.577Z,27.90
2018-09-20T10:49:57.026Z,28.00
2018-09-20T10:53:11.971Z,28.30
2018-09-20T10:55:48.481Z,28.90
2018-09-20T10:58:24.969Z,29.00
2018-09-20T11:01:01.381Z,29.00
2018-09-20T11:03:37.907Z,29.20
2018-09-20T11:06:14.257Z,29.30
2018-09-20T11:08:50.772Z,29.20
2018-09-20T11:11:27.214Z,29.30
2018-09-20T11:14:03.670Z,29.30
2018-09-20T11:16:40.303Z,29.50
2018-09-20T11:19:16.687Z,29.40
2018-09-20T11:21:53.191Z,29.00
2018-09-20T11:24:29.701Z,29.20
2018-09-20T11:27:06.218Z,29.20
2018-09-20T11:29:42.672Z,29.50
2018-09-20T11:32:19.157Z,29.40
2018-09-20T11:34:55.453Z,29.40
2018-09-20T11:37:32.033Z,29.50
2018-09-20T11:40:08.518Z,29.60
2018-09-20T11:42:44.854Z,29.60
2018-09-20T11:45:21.286Z,29.60
2018-09-20T11:47:57.824Z,29.90
2018-09-20T11:50:34.163Z,29.80
2018-09-20T11:53:10.666Z,29.60
2018-09-20T11:55:47.144Z,29.30
2018-09-20T11:58:23.598Z,29.40
2018-09-20T12:01:00.117Z,29.50
2018-09-20T12:03:36.550Z,29.50
2018-09-20T12:06:12.816Z,29.50
2018-09-20T12:08:49.387Z,29.80
2018-09-20T12:11:26.121Z,30.00
2018-09-20T12:14:02.613Z,29.90
2018-09-20T12:16:39.083Z,29.80
2018-09-20T12:19:16.267Z,29.70
2018-09-20T12:21:52.555Z,29.70
2018-09-20T12:24:28.909Z,29.70
2018-09-20T12:27:06.033Z,29.70
2018-09-20T12:29:42.478Z,29.50
2018-09-20T12:32:19.048Z,29.40
2018-09-20T12:34:55.347Z,29.50
2018-09-20T12:37:37.246Z,29.60
2018-09-20T12:40:13.709Z,29.40
2018-09-20T12:42:50.193Z,29.30
2018-09-20T12:45:26.515Z,29.40
2018-09-20T12:48:02.995Z,29.50
2018-09-20T12:50:39.256Z,29.40
2018-09-20T12:53:15.877Z,29.30
2018-09-20T12:55:52.191Z,29.40
2018-09-20T12:58:33.963Z,29.40
2018-09-20T13:01:10.756Z,29.40
2018-09-20T13:03:47.304Z,29.60
2018-09-20T13:06:23.751Z,29.70
2018-09-20T13:09:00.210Z,29.70
2018-09-20T13:11:36.672Z,29.60
2018-09-20T13:14:13.157Z,29.60
2018-09-20T13:16:49.549Z,29.50
2018-09-20T13:19:26.104Z,29.50
2018-09-20T13:22:02.708Z,29.40
2018-09-20T13:24:40.148Z,29.40
2018-09-20T13:27:16.593Z,29.30
2018-09-20T13:29:52.902Z,29.10
2018-09-20T13:32:29.231Z,29.20
2018-09-20T13:35:05.780Z,29.30
2018-09-20T13:37:42.126Z,29.20
2018-09-20T13:40:18.680Z,29.20
2018-09-20T13:42:55.724Z,29.30
2018-09-20T13:45:32.108Z,29.30
2018-09-20T13:48:08.523Z,29.40
2018-09-20T13:50:44.968Z,29.40
2018-09-20T13:53:21.380Z,29.30
2018-09-20T13:55:58.774Z,29.30
2018-09-20T13:58:35.210Z,29.20
2018-09-20T14:01:11.525Z,29.20
2018-09-20T14:03:48.172Z,29.20
2018-09-20T14:06:24.446Z,29.20
2018-09-20T14:09:00.879Z,29.10
2018-09-20T14:11:37.433Z,28.90
2018-09-20T14:14:13.873Z,28.80
2018-09-20T14:16:50.302Z,28.80
2018-09-20T14:19:26.783Z,28.70
2018-09-20T14:22:03.113Z,28.70
2018-09-20T14:24:39.584Z,28.70
2018-09-20T14:27:16.068Z,28.60
2018-09-20T14:29:52.398Z,28.50
2018-09-20T14:32:28.708Z,28.60
2018-09-20T14:35:05.168Z,28.60
2018-09-20T14:37:42.120Z,28.60
2018-09-20T14:40:18.672Z,28.60
2018-09-20T14:42:54.996Z,28.70
2018-09-20T14:45:31.456Z,28.60
2018-09-20T14:48:08.075Z,28.60
2018-09-20T14:50:45.448Z,28.60
2018-09-20T14:53:21.857Z,28.60
2018-09-20T14:55:58.259Z,28.50
2018-09-20T14:58:35.716Z,28.40
2018-09-20T15:01:11.992Z,28.30
2018-09-20T15:03:48.495Z,28.30
2018-09-20T15:06:24.912Z,28.30
2018-09-20T15:09:01.411Z,28.20
2018-09-20T15:11:37.927Z,28.20
2018-09-20T15:14:14.520Z,28.20
2018-09-20T15:16:50.783Z,28.10
2018-09-20T15:19:27.286Z,28.10
2018-09-20T15:22:03.732Z,28.00
2018-09-20T15:24:40.219Z,28.00
2018-09-20T15:27:16.640Z,27.90
2018-09-20T15:29:53.096Z,27.90
2018-09-20T15:32:29.485Z,27.90
2018-09-20T15:35:05.998Z,27.90
2018-09-20T15:37:42.411Z,27.90
2018-09-20T15:40:18.904Z,27.80
2018-09-20T15:42:55.391Z,27.90
2018-09-20T15:45:31.955Z,27.80
2018-09-20T15:48:09.622Z,27.80
2018-09-20T15:50:47.009Z,27.80
2018-09-20T15:53:23.484Z,27.70
2018-09-20T15:55:59.947Z,27.70
2018-09-20T15:58:36.480Z,27.60
2018-09-20T16:01:13.427Z,27.60
2018-09-20T16:03:49.727Z,27.60
2018-09-20T16:06:26.210Z,27.50
2018-09-20T16:09:02.642Z,27.50
2018-09-20T16:11:38.916Z,27.50
2018-09-20T16:14:16.009Z,27.40
2018-09-20T16:16:52.387Z,27.30
2018-09-20T16:19:29.150Z,27.30
2018-09-20T16:22:05.635Z,27.30
2018-09-20T16:24:42.184Z,27.30
2018-09-20T16:27:18.893Z,27.20
2018-09-20T16:30:37.985Z,27.10
2018-09-20T16:35:48.679Z,27.10
2018-09-20T16:38:53.986Z,27.10
2018-09-20T16:41:36.439Z,27.00
2018-09-20T16:44:12.901Z,26.90
2018-09-20T16:46:49.565Z,26.90
2018-09-20T16:49:26.024Z,26.90
2018-09-20T16:52:02.331Z,26.80
2018-09-20T16:54:39.767Z,26.80
2018-09-20T16:57:17.144Z,26.70
2018-09-20T16:59:53.633Z,26.60
2018-09-20T17:02:30.126Z,26.50
2018-09-20T17:05:06.736Z,26.50
2018-09-20T17:07:43.663Z,26.40
2018-09-20T17:10:19.932Z,26.40
2018-09-20T17:12:56.461Z,26.30
2018-09-20T17:15:32.836Z,26.30
2018-09-20T17:18:09.559Z,26.20
2018-09-20T17:20:45.935Z,26.20
2018-09-20T17:23:22.740Z,26.10
2018-09-20T17:25:59.238Z,26.00
2018-09-20T17:28:35.615Z,25.90
2018-09-20T17:31:12.370Z,25.80
2018-09-20T17:33:48.750Z,25.80
2018-09-20T17:36:26.494Z,25.70
2018-09-20T17:39:04.942Z,25.60
2018-09-20T17:41:42.902Z,25.50
2018-09-20T17:44:19.375Z,25.50
2018-09-20T17:46:55.807Z,25.50
2018-09-20T17:49:32.248Z,25.40
2018-09-20T17:52:09.745Z,25.40
2018-09-20T17:54:47.389Z,25.30
2018-09-20T17:57:25.774Z,25.20
2018-09-20T18:00:02.064Z,25.10
2018-09-20T18:02:38.595Z,25.10
2018-09-20T18:05:15.192Z,25.10
2018-09-20T18:07:51.822Z,25.10
2018-09-20T18:10:28.183Z,25.10
2018-09-20T18:13:04.855Z,24.90
2018-09-20T18:15:41.399Z,24.90
2018-09-20T18:18:18.042Z,24.90
2018-09-20T18:20:54.401Z,24.80
2018-09-20T18:23:30.709Z,24.80
2018-09-20T18:26:07.173Z,24.90
2018-09-20T18:28:43.785Z,24.80
2018-09-20T18:31:20.393Z,24.80
2018-09-20T18:33:57.020Z,24.70
2018-09-20T18:36:33.448Z,24.60
2018-09-20T18:39:12.903Z,24.60
2018-09-20T18:41:49.459Z,24.60
2018-09-20T18:44:25.758Z,24.60
2018-09-20T18:47:02.237Z,24.60
2018-09-20T18:49:38.768Z,24.60
2018-09-20T18:52:15.319Z,24.50
2018-09-20T18:54:51.643Z,24.40
2018-09-20T18:57:27.987Z,24.40
2018-09-20T19:00:06.960Z,24.40
2018-09-20T19:02:43.356Z,24.30
2018-09-20T19:05:19.965Z,24.20
2018-09-20T19:07:56.517Z,24.10
2018-09-20T19:10:32.840Z,24.10
2018-09-20T19:13:10.261Z,24.00
2018-09-20T19:15:46.674Z,23.90
2018-09-20T19:18:23.277Z,23.90
2018-09-20T19:20:59.726Z,23.80
2018-09-20T19:23:36.913Z,23.80
2018-09-20T19:26:13.356Z,23.90
2018-09-20T19:28:49.893Z,23.80
2018-09-20T19:31:26.282Z,23.70
2018-09-20T19:34:02.736Z,23.70
2018-09-20T19:36:39.460Z,23.70
2018-09-20T19:39:15.982Z,23.70
2018-09-20T19:44:19.381Z,23.60
2018-09-20T19:46:56.237Z,23.30
2018-09-20T19:49:32.782Z,23.20
2018-09-20T19:52:09.374Z,23.10
2018-09-20T19:54:45.633Z,23.00
2018-09-20T19:57:22.113Z,22.90
2018-09-20T19:59:58.586Z,22.90
2018-09-20T20:02:35.004Z,22.80
2018-09-20T20:05:11.502Z,22.70
2018-09-20T20:07:47.877Z,22.60
2018-09-20T20:10:24.290Z,22.60
2018-09-20T20:13:00.901Z,22.60
2018-09-20T20:15:37.367Z,22.50
2018-09-20T20:18:14.028Z,22.50
2018-09-20T20:20:50.617Z,22.50
2018-09-20T20:23:26.950Z,22.40
2018-09-20T20:26:03.632Z,22.40
2018-09-20T20:28:39.972Z,22.30
2018-09-20T20:31:16.208Z,22.20
2018-09-20T20:33:52.658Z,22.20
2018-09-20T20:36:29.108Z,22.10
2018-09-20T20:39:08.145Z,22.00
2018-09-20T20:41:44.376Z,22.00
2018-09-20T20:44:20.848Z,21.90
2018-09-20T20:46:57.329Z,21.90
2018-09-20T20:49:33.748Z,21.90
2018-09-20T20:52:10.753Z,21.80
2018-09-20T20:54:47.087Z,21.70
2018-09-20T20:57:23.514Z,21.60
2018-09-20T21:00:00.056Z,21.60
2018-09-20T21:02:36.443Z,21.50
2018-09-20T21:05:12.941Z,21.50
2018-09-20T21:07:49.374Z,21.40
2018-09-20T21:10:25.894Z,21.40
2018-09-20T21:13:02.688Z,21.30
2018-09-20T21:15:38.983Z,21.30
2018-09-20T21:18:15.493Z,21.30
2018-09-20T21:20:51.828Z,21.20
2018-09-20T21:23:28.240Z,21.10
2018-09-20T21:26:04.599Z,21.10
2018-09-20T21:28:41.117Z,21.00
2018-09-20T21:31:17.944Z,20.90
2018-09-20T21:33:54.509Z,20.80
2018-09-20T21:36:31.013Z,20.70
2018-09-20T21:39:10.935Z,20.70
2018-09-20T21:41:47.316Z,20.70
2018-09-20T21:44:23.731Z,20.80
2018-09-20T21:47:00.295Z,20.70
2018-09-20T21:49:36.819Z,20.70
2018-09-20T21:52:13.452Z,20.70
2018-09-20T21:54:49.751Z,20.60
2018-09-20T21:57:26.205Z,20.60
2018-09-20T22:00:02.679Z,20.50
2018-09-20T22:02:44.235Z,20.50
2018-09-20T22:05:20.679Z,20.40
2018-09-20T22:07:57.031Z,20.40
2018-09-20T22:10:33.478Z,20.30
2018-09-20T22:13:09.991Z,20.20
2018-09-20T22:15:46.509Z,20.10
2018-09-20T22:18:23.026Z,20.00
2018-09-20T22:20:59.355Z,19.90
2018-09-20T22:23:35.816Z,19.90
2018-09-20T22:26:12.301Z,19.90
2018-09-20T22:28:48.799Z,19.80
2018-09-20T22:31:25.330Z,19.80
2018-09-20T22:34:01.835Z,19.70
2018-09-20T22:36:38.269Z,19.80
2018-09-20T22:39:14.734Z,19.70
2018-09-20T22:41:51.222Z,19.60
2018-09-20T22:44:27.752Z,19.50
2018-09-20T22:47:04.091Z,19.40
2018-09-20T22:49:40.629Z,19.40
2018-09-20T22:52:17.071Z,19.40
2018-09-20T22:54:53.445Z,19.30
2018-09-20T22:57:29.868Z,19.30
2018-09-20T23:00:06.658Z,19.30
2018-09-20T23:02:43.008Z,19.30
2018-09-20T23:05:19.572Z,19.20
2018-09-20T23:07:55.875Z,19.20
2018-09-20T23:10:32.384Z,19.20
2018-09-20T23:13:08.912Z,19.20
2018-09-20T23:15:45.208Z,19.10
2018-09-20T23:18:21.521Z,19.10
2018-09-20T23:20:58.007Z,19.00
2018-09-20T23:23:34.534Z,18.90
2018-09-20T23:26:11.040Z,18.90
2018-09-20T23:28:47.528Z,18.80
2018-09-20T23:31:23.945Z,18.80
2018-09-20T23:34:00.462Z,18.80
2018-09-20T23:36:36.856Z,18.80
2018-09-20T23:39:13.684Z,18.70
2018-09-20T23:41:50.145Z,18.70
2018-09-20T23:44:26.606Z,18.70
2018-09-20T23:47:03.008Z,18.70
2018-09-20T23:49:39.572Z,18.70
2018-09-20T23:52:16.014Z,18.70
2018-09-20T23:54:52.585Z,18.60
2018-09-20T23:57:29.031Z,18.60
